Terminal Aerodrome Forecast
Issued by NWS

Home | Current Version | Previous Version | Text Only | Print | Product List | Glossary Off
Versions: 1 2 3 4 5 6 7 8 9 10 11 12 13 14 15

000
FTUS43 KGRB 051100
TAFMTW
TAF
KMTW 051130Z 0512/0612 10008KT P6SM SCT070 OVC110
     FM060000 08006KT P6SM SCT040 OVC070
     FM060300 06004KT P6SM SCT020 OVC035
     FM060800 05004KT P6SM VCSH BKN012 OVC020=

USA.gov is the U.S. government's official web portal to all federal, state and local government web resources and services.